Flugplatz Hölleberg

Für EDVL sind keine METAR/TAF Berichte vorhanden.
Es werden die Flugwettermeldungen vom Flugplatz Kassel-Calden in 22 km Entfernung angezeigt.

Prognose für EDVK

vom 25.01. um 00:00 UTC

Am 25.01. zwischen 00:00 UTC und 00:00 UTC

variable Windrichtung mit 3 kt

Sichtweite 7000 m

bedeckt in 700 ft


Am 25.01. zwischen 00:00 und 00:00 UTC übergehend zu

variable Windrichtung mit 3 kt

Sichtweite 2500 m

feuchter Dunst

bedeckt in 400 ft


Am 25.01. zwischen 00:00 UTC und 00:00 UTC zeitweise mit einer Wahrscheinlichkeit von 30%

Sichtweite 200 m

Code: FZFG

TAF AMD EDVK 251843Z 2518/2603 VRB03KT 7000 OVC007 BECMG 2518/2521 2500 BR OVC004 PROB30 TEMPO 2521/2603 0200 FZFG VV000
Impressum